General Aviation Weather

Text Reports

Enter one or more of the following location identifiers separated by a space:

Zip Code, Four-Character ICAO or Three-Character IATA airport codes.

METAR - Aviation Routine Weather Report
KIFA - Iowa Falls, Iowa
Updated at 7:55 PM GMT on September 18, 2014 (2:55 PM CDT):
METAR KIFA 181955Z AUTO 16008G18KT 10SM CLR 22/11 A3006 RMK AO2 T02210109
TAF - Terminal Area Forecast
KIFA - Iowa Falls, Iowa
Updated at 7:55 PM GMT on September 18, 2014 (2:55 PM CDT):
No TAF is currently available for this location.
Decoded:
No decoded TAF is available.
PIREP - Pilot Weather Report
KIFA - Iowa Falls, Iowa
Updated at 7:55 PM GMT on September 18, 2014 (2:55 PM CDT):
No PIREP is currently available for this location.
AIRMET - Airmens Meteorological Information
KIFA - Iowa Falls, Iowa
Updated at 7:55 PM GMT on September 18, 2014 (2:55 PM CDT):
No AIRMET is currently available for this location.
SIGMET - Significant Meteorological Information
KIFA - Iowa Falls, Iowa
Updated at 7:55 PM GMT on September 18, 2014 (2:55 PM CDT):
No SIGMET is currently available for this location.
NOTAM - Notice to Airmen
KIFA - Iowa Falls, Iowa
Updated at 7:55 PM GMT on September 18, 2014 (2:55 PM CDT):
No NOTAM is currently available for this location.
Forecast Area
KIFA - Iowa Falls, Iowa
Updated at 7:55 PM GMT on September 18, 2014 (2:55 PM CDT):
No NOTAM is currently available for this location.
Aviation Weather Maps